createdAt,value
2018-04-22T00:02:26.000Z,22.10
2018-04-22T00:04:53.741Z,22.00
2018-04-22T00:07:21.220Z,22.13
2018-04-22T00:09:48.750Z,21.93
2018-04-22T00:12:16.281Z,24.43
2018-04-22T00:14:43.803Z,21.97
2018-04-22T00:17:11.294Z,21.63
2018-04-22T00:19:38.816Z,22.10
2018-04-22T00:22:07.090Z,21.90
2018-04-22T00:24:34.625Z,23.67
2018-04-22T00:27:02.130Z,23.27
2018-04-22T00:29:29.668Z,23.03
2018-04-22T00:31:57.169Z,22.40
2018-04-22T00:34:24.671Z,21.80
2018-04-22T00:36:52.201Z,21.43
2018-04-22T00:39:19.687Z,22.53
2018-04-22T00:41:47.232Z,23.53
2018-04-22T00:44:14.718Z,22.70
2018-04-22T00:46:42.245Z,21.17
2018-04-22T00:49:09.738Z,22.20
2018-04-22T00:51:37.254Z,21.97
2018-04-22T00:54:16.732Z,21.60
2018-04-22T00:56:44.251Z,22.23
2018-04-22T00:59:11.748Z,22.77
2018-04-22T01:01:39.280Z,23.97
2018-04-22T01:04:06.769Z,22.10
2018-04-22T01:06:34.304Z,21.50
2018-04-22T01:09:01.793Z,21.53
2018-04-22T01:11:29.337Z,22.70
2018-04-22T01:13:56.833Z,22.27
2018-04-22T01:16:24.327Z,21.93
2018-04-22T01:18:51.853Z,21.50
2018-04-22T01:21:19.346Z,22.70
2018-04-22T01:23:46.866Z,22.87
2018-04-22T01:26:15.143Z,22.60
2018-04-22T01:28:43.467Z,24.50
2018-04-22T01:34:01.598Z,22.53
2018-04-22T01:36:29.105Z,23.90
2018-04-22T01:38:57.414Z,22.47
2018-04-22T01:41:24.913Z,21.23
2018-04-22T01:43:52.437Z,23.57
2018-04-22T01:46:19.933Z,25.50
2018-04-22T01:48:47.464Z,25.67
2018-04-22T01:51:14.987Z,24.80
2018-04-22T01:53:42.517Z,26.10
2018-04-22T01:56:10.014Z,25.97
2018-04-22T01:58:37.549Z,26.00
2018-04-22T02:01:05.030Z,26.60
2018-04-22T02:03:33.335Z,24.47
2018-04-22T02:06:01.604Z,26.30
2018-04-22T02:08:29.121Z,24.30
2018-04-22T02:10:56.702Z,25.10
2018-04-22T02:13:24.198Z,22.83
2018-04-22T02:15:51.730Z,24.43
2018-04-22T02:18:19.219Z,24.67
2018-04-22T02:20:46.752Z,24.63
2018-04-22T02:23:14.248Z,22.17
2018-04-22T02:25:41.776Z,24.67
2018-04-22T02:28:09.280Z,25.37
2018-04-22T02:30:36.807Z,22.43
2018-04-22T02:33:04.355Z,23.97
2018-04-22T02:35:31.882Z,24.50
2018-04-22T02:37:59.394Z,23.83
2018-04-22T02:40:26.915Z,23.73
2018-04-22T02:42:54.414Z,24.17
2018-04-22T02:45:21.929Z,24.13
2018-04-22T02:47:49.422Z,23.17
2018-04-22T02:50:16.970Z,23.57
2018-04-22T02:52:44.474Z,23.20
2018-04-22T02:55:12.733Z,25.20
2018-04-22T02:57:40.254Z,24.40
2018-04-22T03:00:07.757Z,27.10
2018-04-22T03:02:35.278Z,26.67
2018-04-22T03:05:02.782Z,25.20
2018-04-22T03:07:30.302Z,25.57
2018-04-22T03:09:57.791Z,24.80
2018-04-22T03:12:25.329Z,25.50
2018-04-22T03:14:52.814Z,25.20
2018-04-22T03:17:20.334Z,24.67
2018-04-22T03:19:47.850Z,25.87
2018-04-22T03:22:15.442Z,24.70
2018-04-22T03:24:42.882Z,27.30
2018-04-22T03:27:11.173Z,27.43
2018-04-22T03:29:38.669Z,27.03
2018-04-22T03:32:06.213Z,27.13
2018-04-22T03:34:34.470Z,25.80
2018-04-22T03:37:01.959Z,26.37
2018-04-22T03:39:29.489Z,26.03
2018-04-22T03:41:57.753Z,25.43
2018-04-22T03:44:25.313Z,25.33
2018-04-22T03:46:52.788Z,26.60
2018-04-22T03:49:20.387Z,26.10
2018-04-22T03:51:47.835Z,25.13
2018-04-22T03:54:15.359Z,27.20
2018-04-22T03:56:42.859Z,25.10
2018-04-22T03:59:10.383Z,26.40
2018-04-22T04:01:37.887Z,25.77
2018-04-22T04:04:05.412Z,25.43
2018-04-22T04:06:33.685Z,26.70
2018-04-22T04:09:01.214Z,26.27
2018-04-22T04:11:28.711Z,23.43
2018-04-22T04:13:56.249Z,24.13
2018-04-22T04:16:23.739Z,26.43
2018-04-22T04:19:03.081Z,24.90
2018-04-22T04:21:42.342Z,24.53
2018-04-22T04:27:48.880Z,24.67
2018-04-22T04:30:16.402Z,25.90
2018-04-22T04:32:44.661Z,25.83
2018-04-22T04:35:12.182Z,26.80
2018-04-22T04:37:39.679Z,24.93
2018-04-22T04:40:07.210Z,25.50
2018-04-22T04:42:34.734Z,27.63
2018-04-22T04:45:02.224Z,25.10
2018-04-22T04:47:29.755Z,27.13
2018-04-22T04:49:57.258Z,26.70
2018-04-22T04:52:24.772Z,24.67
2018-04-22T04:54:52.261Z,26.33
2018-04-22T04:57:19.789Z,24.70
2018-04-22T04:59:47.289Z,25.03
2018-04-22T05:02:14.814Z,25.60
2018-04-22T05:04:42.300Z,23.87
2018-04-22T05:07:10.605Z,22.80
2018-04-22T05:09:39.091Z,25.33
2018-04-22T05:12:06.609Z,24.80
2018-04-22T05:14:34.109Z,24.90
2018-04-22T05:17:01.597Z,23.57
2018-04-22T05:19:29.125Z,23.50
2018-04-22T05:21:56.655Z,25.40
2018-04-22T05:24:24.223Z,24.10
2018-04-22T05:26:51.672Z,24.83
2018-04-22T05:29:19.179Z,25.70
2018-04-22T05:31:46.664Z,26.80
2018-04-22T05:34:14.185Z,24.50
2018-04-22T05:36:41.684Z,23.03
2018-04-22T05:39:09.218Z,26.47
2018-04-22T05:41:36.742Z,24.43
2018-04-22T05:44:04.226Z,24.13
2018-04-22T05:46:31.733Z,23.33
2018-04-22T05:48:59.461Z,23.73
2018-04-22T05:51:26.969Z,23.60
2018-04-22T05:53:54.457Z,27.67
2018-04-22T05:56:21.962Z,23.47
2018-04-22T05:58:49.471Z,24.23
2018-04-22T06:01:16.999Z,22.07
2018-04-22T06:03:45.272Z,23.47
2018-04-22T06:06:12.771Z,23.80
2018-04-22T06:08:40.832Z,24.50
2018-04-22T06:11:08.343Z,23.33
2018-04-22T06:13:35.828Z,21.67
2018-04-22T06:16:03.349Z,22.07
2018-04-22T06:18:31.625Z,21.37
2018-04-22T06:20:59.116Z,21.07
2018-04-22T06:23:26.626Z,19.83
2018-04-22T06:25:54.108Z,19.37
2018-04-22T06:28:21.700Z,18.07
2018-04-22T06:30:49.158Z,17.93
2018-04-22T06:33:16.667Z,18.97
2018-04-22T06:35:44.914Z,17.70
2018-04-22T06:38:12.426Z,17.20
2018-04-22T06:40:40.669Z,16.60
2018-04-22T06:43:08.182Z,17.47
2018-04-22T06:45:35.669Z,17.00
2018-04-22T06:48:03.943Z,16.03
2018-04-22T06:50:31.431Z,14.97
2018-04-22T06:52:59.697Z,15.80
2018-04-22T06:55:27.181Z,15.10
2018-04-22T06:57:55.457Z,16.67
2018-04-22T07:00:22.954Z,14.90
2018-04-22T07:02:50.444Z,15.17
2018-04-22T07:05:17.956Z,14.40
2018-04-22T07:07:45.478Z,13.40
2018-04-22T07:10:12.981Z,14.30
2018-04-22T07:12:40.472Z,13.67
2018-04-22T07:15:07.973Z,13.43
2018-04-22T07:17:35.466Z,13.80
2018-04-22T07:20:02.969Z,13.40
2018-04-22T07:22:30.446Z,13.93
2018-04-22T07:24:57.958Z,12.93
2018-04-22T07:27:26.214Z,12.23
2018-04-22T07:29:53.730Z,12.70
2018-04-22T07:32:21.225Z,12.53
2018-04-22T07:34:48.738Z,12.10
2018-04-22T07:37:16.240Z,12.80
2018-04-22T07:39:44.501Z,12.07
2018-04-22T07:42:11.984Z,12.50
2018-04-22T07:44:40.246Z,11.70
2018-04-22T07:47:07.886Z,12.00
2018-04-22T07:49:35.365Z,12.07
2018-04-22T07:52:02.868Z,11.57
2018-04-22T07:54:30.362Z,11.97
2018-04-22T07:56:58.638Z,10.50
2018-04-22T07:59:26.170Z,11.10
2018-04-22T08:01:53.679Z,11.77
2018-04-22T08:04:21.937Z,10.93
2018-04-22T08:06:49.495Z,11.63
2018-04-22T08:09:16.960Z,11.43
2018-04-22T08:11:44.463Z,11.57
2018-04-22T08:14:11.949Z,10.63
2018-04-22T08:16:39.450Z,10.23
2018-04-22T08:19:07.701Z,10.70
2018-04-22T08:21:35.201Z,10.57
2018-04-22T08:24:03.521Z,11.63
2018-04-22T08:26:31.014Z,11.00
2018-04-22T08:28:58.536Z,10.77
2018-04-22T08:31:26.038Z,9.82
2018-04-22T08:33:53.553Z,9.43
2018-04-22T08:36:21.045Z,9.77
2018-04-22T08:38:49.332Z,11.73
2018-04-22T08:41:16.832Z,10.43
2018-04-22T08:43:44.339Z,9.40
2018-04-22T08:46:11.822Z,8.60
2018-04-22T08:48:39.321Z,9.67
2018-04-22T08:51:07.563Z,9.20
2018-04-22T08:53:35.061Z,8.93
2018-04-22T08:56:02.577Z,8.33
2018-04-22T08:58:30.074Z,9.10
2018-04-22T09:00:57.877Z,8.07
2018-04-22T09:03:25.377Z,7.97
2018-04-22T09:05:52.881Z,8.10
2018-04-22T09:08:20.399Z,7.90
2018-04-22T09:10:48.820Z,9.53
2018-04-22T09:13:16.322Z,8.33
2018-04-22T09:15:43.822Z,9.10
2018-04-22T09:18:11.300Z,9.40
2018-04-22T09:20:38.802Z,8.83
2018-04-22T09:23:07.058Z,7.90
2018-04-22T09:25:34.553Z,8.47
2018-04-22T09:28:02.807Z,8.63
2018-04-22T09:30:31.094Z,7.90
2018-04-22T09:32:58.583Z,8.63
2018-04-22T09:35:26.091Z,8.57
2018-04-22T09:37:53.573Z,8.00
2018-04-22T09:40:21.069Z,6.83
2018-04-22T09:42:48.545Z,7.50
2018-04-22T09:45:16.068Z,7.40
2018-04-22T09:47:44.614Z,7.43
2018-04-22T09:50:12.717Z,8.00
2018-04-22T09:52:40.199Z,7.07
2018-04-22T09:55:07.752Z,6.90
2018-04-22T09:57:35.317Z,7.27
2018-04-22T10:00:02.802Z,7.47
2018-04-22T10:02:32.875Z,6.57
2018-04-22T10:05:06.005Z,5.77
2018-04-22T10:07:33.526Z,7.43
2018-04-22T10:10:01.006Z,7.60
2018-04-22T10:12:29.276Z,6.70
2018-04-22T10:14:56.785Z,6.90
2018-04-22T10:17:24.314Z,6.87
2018-04-22T10:19:51.821Z,5.93
2018-04-22T10:22:20.100Z,6.80
2018-04-22T10:24:48.366Z,7.03
2018-04-22T10:27:15.887Z,6.40
2018-04-22T10:29:43.379Z,5.83
2018-04-22T10:32:10.904Z,6.63
2018-04-22T10:34:39.148Z,6.50
2018-04-22T10:37:06.669Z,7.00
2018-04-22T10:39:34.968Z,6.10
2018-04-22T10:42:02.543Z,5.97
2018-04-22T10:44:30.019Z,6.10
2018-04-22T10:46:57.579Z,5.90
2018-04-22T10:49:25.102Z,5.70
2018-04-22T10:51:52.593Z,5.27
2018-04-22T10:54:20.112Z,5.20
2018-04-22T10:56:47.605Z,4.60
2018-04-22T10:59:15.137Z,6.17
2018-04-22T11:01:43.371Z,4.60
2018-04-22T11:04:10.881Z,5.40
2018-04-22T11:06:39.148Z,5.20
2018-04-22T11:09:06.675Z,5.00
2018-04-22T11:11:34.205Z,5.37
2018-04-22T11:14:01.725Z,5.50
2018-04-22T11:16:29.205Z,5.60
2018-04-22T11:18:56.743Z,4.47
2018-04-22T11:21:25.025Z,5.00
2018-04-22T11:23:53.313Z,4.83
2018-04-22T11:26:21.617Z,4.30
2018-04-22T11:28:49.149Z,5.27
2018-04-22T11:31:16.678Z,5.60
2018-04-22T11:33:44.172Z,5.67
2018-04-22T11:36:11.725Z,5.43
2018-04-22T11:38:39.253Z,5.17
2018-04-22T11:41:06.762Z,5.90
2018-04-22T11:43:34.248Z,5.10
2018-04-22T11:46:01.761Z,5.03
2018-04-22T11:48:29.270Z,4.73
2018-04-22T11:50:56.792Z,6.13
2018-04-22T11:53:24.280Z,5.30
2018-04-22T11:55:51.798Z,4.73
2018-04-22T11:58:19.281Z,5.00
2018-04-22T12:00:46.798Z,5.47
2018-04-22T12:03:15.049Z,4.03
2018-04-22T12:05:42.574Z,4.70
2018-04-22T12:08:10.819Z,4.40
2018-04-22T12:10:38.329Z,4.43
2018-04-22T12:13:06.577Z,5.07
2018-04-22T12:15:34.061Z,4.77
2018-04-22T12:18:01.654Z,4.20
2018-04-22T12:20:29.925Z,4.90
2018-04-22T12:22:57.437Z,3.60
2018-04-22T12:25:24.914Z,3.33
2018-04-22T12:27:52.411Z,3.00
2018-04-22T12:30:19.885Z,3.40
2018-04-22T12:32:47.398Z,2.60
2018-04-22T12:35:15.702Z,2.90
2018-04-22T12:37:44.048Z,3.07
2018-04-22T12:40:11.533Z,3.07
2018-04-22T12:42:39.050Z,2.97
2018-04-22T12:45:06.533Z,3.00
2018-04-22T12:47:34.049Z,2.87
2018-04-22T12:50:01.530Z,3.00
2018-04-22T12:52:29.052Z,3.03
2018-04-22T12:54:56.538Z,3.53
2018-04-22T12:57:24.046Z,3.30
2018-04-22T12:59:51.529Z,3.50
2018-04-22T13:02:19.006Z,3.50
2018-04-22T13:04:46.536Z,2.67
2018-04-22T13:07:14.021Z,3.10
2018-04-22T13:09:41.542Z,3.83
2018-04-22T13:12:09.054Z,3.23
2018-04-22T13:14:36.568Z,4.60
2018-04-22T13:17:04.056Z,4.17
2018-04-22T13:19:31.582Z,3.80
2018-04-22T13:21:59.094Z,3.70
2018-04-22T13:24:26.610Z,3.07
2018-04-22T13:26:54.086Z,3.23
2018-04-22T13:29:21.608Z,2.87
2018-04-22T13:31:49.185Z,2.57
2018-04-22T13:34:16.716Z,3.00
2018-04-22T13:36:44.969Z,3.20
2018-04-22T13:39:13.261Z,2.93
2018-04-22T13:41:40.746Z,3.30
2018-04-22T13:44:08.274Z,2.77
2018-04-22T13:46:35.763Z,2.73
2018-04-22T13:49:03.285Z,2.90
2018-04-22T13:51:31.544Z,2.93
2018-04-22T13:53:59.082Z,3.17
2018-04-22T13:56:26.561Z,3.27
2018-04-22T13:58:54.047Z,2.60
2018-04-22T14:01:21.566Z,2.90
2018-04-22T14:03:49.068Z,3.20
2018-04-22T14:06:16.597Z,3.27
2018-04-22T14:08:44.070Z,3.30
2018-04-22T14:11:12.350Z,3.20
2018-04-22T14:13:39.888Z,3.20
2018-04-22T14:16:07.425Z,3.33
2018-04-22T14:18:34.906Z,5.00
2018-04-22T14:21:02.482Z,4.00
2018-04-22T14:23:29.968Z,3.93
2018-04-22T14:25:57.486Z,3.90
2018-04-22T14:28:25.733Z,4.03
2018-04-22T14:30:53.253Z,4.00
2018-04-22T14:33:20.733Z,3.80
2018-04-22T14:35:49.022Z,3.70
2018-04-22T14:38:16.534Z,4.40
2018-04-22T14:40:44.053Z,3.37
2018-04-22T14:43:11.550Z,4.03
2018-04-22T14:45:51.070Z,3.70
2018-04-22T14:48:18.581Z,3.77
2018-04-22T14:50:46.108Z,3.80
2018-04-22T14:53:13.625Z,3.63
2018-04-22T14:55:41.144Z,4.37
2018-04-22T14:58:08.645Z,3.77
2018-04-22T15:00:36.125Z,3.40
2018-04-22T15:03:03.637Z,3.53
2018-04-22T15:05:31.116Z,3.80
2018-04-22T15:07:58.630Z,3.90
2018-04-22T15:10:26.110Z,3.70
2018-04-22T15:12:53.629Z,3.33
2018-04-22T15:15:21.121Z,3.20
2018-04-22T15:17:48.637Z,3.17
2018-04-22T15:20:16.125Z,3.30
2018-04-22T15:22:43.637Z,3.13
2018-04-22T15:25:11.119Z,3.80
2018-04-22T15:27:39.361Z,3.90
2018-04-22T15:30:06.877Z,3.40
2018-04-22T15:32:34.362Z,3.90
2018-04-22T15:35:02.637Z,4.90
2018-04-22T15:37:30.893Z,4.50
2018-04-22T15:39:58.437Z,4.10
2018-04-22T15:42:25.933Z,3.63
2018-04-22T15:44:53.469Z,4.73
2018-04-22T15:47:20.953Z,4.37
2018-04-22T15:49:48.473Z,4.20
2018-04-22T15:52:15.969Z,4.10
2018-04-22T15:54:44.254Z,4.33
2018-04-22T15:57:11.774Z,4.50
2018-04-22T15:59:41.095Z,11.20
2018-04-22T16:02:08.615Z,41.83
2018-04-22T16:04:36.896Z,21.03
2018-04-22T16:07:04.429Z,7.83
2018-04-22T16:09:31.913Z,4.80
2018-04-22T16:11:59.413Z,3.90
2018-04-22T16:14:27.703Z,6.00
2018-04-22T16:16:55.207Z,6.27
2018-04-22T16:19:22.689Z,4.90
2018-04-22T16:21:50.181Z,7.23
2018-04-22T16:24:17.677Z,7.00
2018-04-22T16:26:45.977Z,6.50
2018-04-22T16:29:14.261Z,5.00
2018-04-22T16:31:42.537Z,3.80
2018-04-22T16:34:10.018Z,4.07
2018-04-22T16:36:38.305Z,6.60
2018-04-22T16:39:05.785Z,6.07
2018-04-22T16:41:34.035Z,5.90
2018-04-22T16:44:01.553Z,6.10
2018-04-22T16:46:29.042Z,4.63
2018-04-22T16:48:56.554Z,5.33
2018-04-22T16:51:24.053Z,5.10
2018-04-22T16:53:52.357Z,5.47
2018-04-22T16:56:20.628Z,5.80
2018-04-22T16:58:48.152Z,6.00
2018-04-22T17:01:15.648Z,5.90
2018-04-22T17:03:43.178Z,7.00
2018-04-22T17:06:10.661Z,5.97
2018-04-22T17:08:38.237Z,5.33
2018-04-22T17:11:06.494Z,4.80
2018-04-22T17:13:34.744Z,6.00
2018-04-22T17:16:02.259Z,6.23
2018-04-22T17:18:30.502Z,6.13
2018-04-22T17:20:58.594Z,6.20
2018-04-22T17:23:26.078Z,5.47
2018-04-22T17:25:53.593Z,5.67
2018-04-22T17:28:21.098Z,4.77
2018-04-22T17:30:48.626Z,4.90
2018-04-22T17:33:16.169Z,5.60
2018-04-22T17:35:44.469Z,5.00
2018-04-22T17:38:12.720Z,4.23
2018-04-22T17:40:40.229Z,4.57
2018-04-22T17:43:08.490Z,4.00
2018-04-22T17:45:36.010Z,4.00
2018-04-22T17:48:03.511Z,3.83
2018-04-22T17:50:31.058Z,3.43
2018-04-22T17:52:58.563Z,3.50
2018-04-22T17:55:26.062Z,3.50
2018-04-22T17:57:53.581Z,4.23
2018-04-22T18:00:21.079Z,4.00
2018-04-22T18:02:48.598Z,4.63
2018-04-22T18:05:16.086Z,4.07
2018-04-22T18:07:43.613Z,4.07
2018-04-22T18:10:11.109Z,4.07
2018-04-22T18:12:38.648Z,3.87
2018-04-22T18:15:06.124Z,3.70
2018-04-22T18:17:33.646Z,4.13
2018-04-22T18:20:01.139Z,3.60
2018-04-22T18:22:28.718Z,4.03
2018-04-22T18:24:56.205Z,4.60
2018-04-22T18:27:23.829Z,4.27
2018-04-22T18:29:51.324Z,4.10
2018-04-22T18:32:18.813Z,4.13
2018-04-22T18:34:46.346Z,3.67
2018-04-22T18:37:13.842Z,4.63
2018-04-22T18:39:41.358Z,3.93
2018-04-22T18:42:09.619Z,3.90
2018-04-22T18:44:37.199Z,4.23
2018-04-22T18:47:04.911Z,4.53
2018-04-22T18:49:32.447Z,4.07
2018-04-22T18:51:59.941Z,5.00
2018-04-22T18:54:27.453Z,4.50
2018-04-22T18:56:54.961Z,5.70
2018-04-22T18:59:22.484Z,5.03
2018-04-22T19:01:50.033Z,3.97
2018-04-22T19:04:18.309Z,4.63
2018-04-22T19:06:47.333Z,4.60
2018-04-22T19:09:14.837Z,4.30
2018-04-22T19:11:42.341Z,4.43
2018-04-22T19:14:09.824Z,4.43
2018-04-22T19:16:38.093Z,4.30
2018-04-22T19:19:05.584Z,4.67
2018-04-22T19:21:33.096Z,4.87
2018-04-22T19:24:00.612Z,5.17
2018-04-22T19:26:28.138Z,4.80
2018-04-22T19:28:56.230Z,4.50
2018-04-22T19:31:23.772Z,4.27
2018-04-22T19:33:52.070Z,4.37
2018-04-22T19:36:19.693Z,4.83
2018-04-22T19:38:47.201Z,5.90
2018-04-22T19:41:15.489Z,4.97
2018-04-22T19:43:43.733Z,4.50
2018-04-22T19:46:11.267Z,5.30
2018-04-22T19:48:39.654Z,5.00
2018-04-22T19:51:07.905Z,5.73
2018-04-22T19:53:35.436Z,5.00
2018-04-22T19:56:02.932Z,4.87
2018-04-22T19:58:30.449Z,4.10
2018-04-22T20:00:57.929Z,5.50
2018-04-22T20:03:26.244Z,4.67
2018-04-22T20:05:54.466Z,5.00
2018-04-22T20:08:22.005Z,5.00
2018-04-22T20:10:49.491Z,5.50
2018-04-22T20:13:17.039Z,4.53
2018-04-22T20:15:44.531Z,5.30
2018-04-22T20:18:12.045Z,3.97
2018-04-22T20:20:39.521Z,6.10
2018-04-22T20:23:07.050Z,5.63
2018-04-22T20:25:34.530Z,5.10
2018-04-22T20:28:02.012Z,6.00
2018-04-22T20:30:29.530Z,5.20
2018-04-22T20:32:57.009Z,5.60
2018-04-22T20:35:24.535Z,5.20
2018-04-22T20:37:52.042Z,5.13
2018-04-22T20:40:19.562Z,5.40
2018-04-22T20:42:47.038Z,5.53
2018-04-22T20:45:15.377Z,5.10
2018-04-22T20:47:42.857Z,4.33
2018-04-22T20:50:10.378Z,6.00
2018-04-22T20:52:37.866Z,5.40
2018-04-22T20:55:05.395Z,5.40
2018-04-22T20:57:32.881Z,5.60
2018-04-22T21:00:00.409Z,5.23
2018-04-22T21:02:27.921Z,5.53
2018-04-22T21:04:55.440Z,5.80
2018-04-22T21:07:23.702Z,5.97
2018-04-22T21:09:51.227Z,5.83
2018-04-22T21:12:18.725Z,5.60
2018-04-22T21:14:46.280Z,6.00
2018-04-22T21:17:13.756Z,6.20
2018-04-22T21:19:41.232Z,5.57
2018-04-22T21:22:08.746Z,5.50
2018-04-22T21:24:36.226Z,5.33
2018-04-22T21:27:04.514Z,6.53
2018-04-22T21:29:32.004Z,5.70
2018-04-22T21:31:59.529Z,6.60
2018-04-22T21:34:27.027Z,6.50
2018-04-22T21:36:55.319Z,6.03
2018-04-22T21:39:22.801Z,5.83
2018-04-22T21:41:51.086Z,5.90
2018-04-22T21:44:19.333Z,6.17
2018-04-22T21:46:47.113Z,6.67
2018-04-22T21:49:14.615Z,6.20
2018-04-22T21:51:42.150Z,6.67
2018-04-22T21:54:09.632Z,5.80
2018-04-22T21:56:37.113Z,6.30
2018-04-22T21:59:04.628Z,5.70
2018-04-22T22:01:32.114Z,6.43
2018-04-22T22:03:59.633Z,6.03
2018-04-22T22:06:27.117Z,5.80
2018-04-22T22:08:55.401Z,6.43
2018-04-22T22:11:23.649Z,5.80
2018-04-22T22:13:51.160Z,5.67
2018-04-22T22:16:18.661Z,5.90
2018-04-22T22:18:46.174Z,6.00
2018-04-22T22:21:13.659Z,5.60
2018-04-22T22:23:41.202Z,6.57
2018-04-22T22:26:08.685Z,5.93
2018-04-22T22:28:36.173Z,6.40
2018-04-22T22:31:03.702Z,5.70
2018-04-22T22:33:31.193Z,6.07
2018-04-22T22:35:58.752Z,5.77
2018-04-22T22:38:26.241Z,5.73
2018-04-22T22:40:53.755Z,6.30
2018-04-22T22:43:22.001Z,6.63
2018-04-22T22:45:49.516Z,5.93
2018-04-22T22:48:17.006Z,6.17
2018-04-22T22:50:44.519Z,5.97
2018-04-22T22:53:12.067Z,6.00
2018-04-22T22:55:39.554Z,6.23
2018-04-22T22:58:07.038Z,6.53
2018-04-22T23:00:34.518Z,6.20
2018-04-22T23:03:02.050Z,6.40
2018-04-22T23:05:29.530Z,7.70
2018-04-22T23:07:57.045Z,6.50
2018-04-22T23:10:24.530Z,6.10
2018-04-22T23:12:52.047Z,6.27
2018-04-22T23:15:19.530Z,6.87
2018-04-22T23:17:47.047Z,6.33
2018-04-22T23:20:14.529Z,6.10
2018-04-22T23:22:42.047Z,6.23
2018-04-22T23:25:09.549Z,7.67
2018-04-22T23:27:37.810Z,6.27
2018-04-22T23:30:05.317Z,6.77
2018-04-22T23:32:32.837Z,6.73
2018-04-22T23:35:00.354Z,6.43
2018-04-22T23:37:28.601Z,5.93
2018-04-22T23:39:56.133Z,6.13
2018-04-22T23:42:24.385Z,5.60
2018-04-22T23:44:51.909Z,5.20
2018-04-22T23:47:19.387Z,5.73
2018-04-22T23:49:46.905Z,5.10
2018-04-22T23:52:15.150Z,5.40
2018-04-22T23:54:42.667Z,5.67
2018-04-22T23:57:10.917Z,6.50
2018-04-22T23:59:38.443Z,4.03
